sensor_id;sensor_type;location;lat;lon;timestamp;temperature;humidity
10873;DHT22;34586;53.616;10.032;2023-01-24T00:01:00;4.10;99.30
10873;DHT22;34586;53.616;10.032;2023-01-24T00:03:28;4.10;98.90
10873;DHT22;34586;53.616;10.032;2023-01-24T00:05:53;4.10;99.90
10873;DHT22;34586;53.616;10.032;2023-01-24T00:08:20;4.00;96.80
10873;DHT22;34586;53.616;10.032;2023-01-24T00:10:48;4.10;99.90
10873;DHT22;34586;53.616;10.032;2023-01-24T00:13:16;4.10;99.90
10873;DHT22;34586;53.616;10.032;2023-01-24T00:15:42;4.10;99.90
10873;DHT22;34586;53.616;10.032;2023-01-24T00:18:08;4.10;99.90
10873;DHT22;34586;53.616;10.032;2023-01-24T00:20:34;4.30;99.90
10873;DHT22;34586;53.616;10.032;2023-01-24T00:22:59;4.10;99.90
10873;DHT22;34586;53.616;10.032;2023-01-24T00:25:25;4.10;94.60
10873;DHT22;34586;53.616;10.032;2023-01-24T00:27:50;4.10;89.50
10873;DHT22;34586;53.616;10.032;2023-01-24T00:30:16;4.10;99.90
10873;DHT22;34586;53.616;10.032;2023-01-24T00:32:42;4.10;88.50
10873;DHT22;34586;53.616;10.032;2023-01-24T00:35:08;4.00;63.90
10873;DHT22;34586;53.616;10.032;2023-01-24T00:37:34;4.00;99.90
10873;DHT22;34586;53.616;10.032;2023-01-24T00:39:59;4.00;78.20
10873;DHT22;34586;53.616;10.032;2023-01-24T00:42:25;4.00;99.90
10873;DHT22;34586;53.616;10.032;2023-01-24T00:44:51;4.00;86.50
10873;DHT22;34586;53.616;10.032;2023-01-24T00:47:18;4.00;97.60
10873;DHT22;34586;53.616;10.032;2023-01-24T00:49:44;4.00;87.70
10873;DHT22;34586;53.616;10.032;2023-01-24T00:52:10;4.00;80.60
10873;DHT22;34586;53.616;10.032;2023-01-24T00:54:36;4.00;81.80
10873;DHT22;34586;53.616;10.032;2023-01-24T00:57:01;4.00;99.90
10873;DHT22;34586;53.616;10.032;2023-01-24T00:59:27;4.00;99.90
10873;DHT22;34586;53.616;10.032;2023-01-24T01:01:53;4.00;99.90
10873;DHT22;34586;53.616;10.032;2023-01-24T01:04:20;4.00;99.90
10873;DHT22;34586;53.616;10.032;2023-01-24T01:06:46;4.50;99.90
10873;DHT22;34586;53.616;10.032;2023-01-24T01:09:11;4.00;99.90
10873;DHT22;34586;53.616;10.032;2023-01-24T01:11:39;4.00;87.20
10873;DHT22;34586;53.616;10.032;2023-01-24T01:14:07;4.00;99.50
10873;DHT22;34586;53.616;10.032;2023-01-24T01:16:33;4.00;94.40
10873;DHT22;34586;53.616;10.032;2023-01-24T01:19:03;4.00;67.70
10873;DHT22;34586;53.616;10.032;2023-01-24T01:21:29;4.00;50.20
10873;DHT22;34586;53.616;10.032;2023-01-24T01:23:55;4.00;50.90
10873;DHT22;34586;53.616;10.032;2023-01-24T01:26:21;3.90;81.30
10873;DHT22;34586;53.616;10.032;2023-01-24T01:28:48;3.90;91.50
10873;DHT22;34586;53.616;10.032;2023-01-24T01:31:15;3.90;99.90
10873;DHT22;34586;53.616;10.032;2023-01-24T01:33:43;4.00;99.60
10873;DHT22;34586;53.616;10.032;2023-01-24T01:36:08;4.00;99.60
10873;DHT22;34586;53.616;10.032;2023-01-24T01:38:34;4.00;99.90
10873;DHT22;34586;53.616;10.032;2023-01-24T01:41:00;4.00;66.80
10873;DHT22;34586;53.616;10.032;2023-01-24T01:43:29;4.00;72.60
10873;DHT22;34586;53.616;10.032;2023-01-24T01:46:18;4.00;68.40
10873;DHT22;34586;53.616;10.032;2023-01-24T01:48:54;4.00;64.70
10873;DHT22;34586;53.616;10.032;2023-01-24T01:51:32;4.20;64.50
10873;DHT22;34586;53.616;10.032;2023-01-24T01:54:08;4.10;59.70
10873;DHT22;34586;53.616;10.032;2023-01-24T01:56:41;4.10;25.90
10873;DHT22;34586;53.616;10.032;2023-01-24T01:59:14;4.00;77.00
10873;DHT22;34586;53.616;10.032;2023-01-24T02:01:42;4.00;83.60
10873;DHT22;34586;53.616;10.032;2023-01-24T02:04:13;4.00;67.20
10873;DHT22;34586;53.616;10.032;2023-01-24T02:07:05;4.20;61.60
10873;DHT22;34586;53.616;10.032;2023-01-24T02:09:34;4.00;68.60
10873;DHT22;34586;53.616;10.032;2023-01-24T02:12:05;4.00;76.30
10873;DHT22;34586;53.616;10.032;2023-01-24T02:14:32;4.10;70.50
10873;DHT22;34586;53.616;10.032;2023-01-24T02:17:19;4.20;46.80
10873;DHT22;34586;53.616;10.032;2023-01-24T02:22:51;4.20;77.80
10873;DHT22;34586;53.616;10.032;2023-01-24T02:27:50;4.00;71.90
10873;DHT22;34586;53.616;10.032;2023-01-24T02:30:16;4.00;87.00
10873;DHT22;34586;53.616;10.032;2023-01-24T02:32:42;4.00;96.20
10873;DHT22;34586;53.616;10.032;2023-01-24T02:35:23;4.10;93.00
10873;DHT22;34586;53.616;10.032;2023-01-24T02:37:50;4.00;66.90
10873;DHT22;34586;53.616;10.032;2023-01-24T02:40:16;4.00;68.60
10873;DHT22;34586;53.616;10.032;2023-01-24T02:42:42;4.00;85.70
10873;DHT22;34586;53.616;10.032;2023-01-24T02:45:21;4.00;98.30
10873;DHT22;34586;53.616;10.032;2023-01-24T02:47:50;3.90;96.80
10873;DHT22;34586;53.616;10.032;2023-01-24T02:50:18;3.90;63.00
10873;DHT22;34586;53.616;10.032;2023-01-24T02:52:47;4.00;97.30
10873;DHT22;34586;53.616;10.032;2023-01-24T02:55:33;3.90;99.90
10873;DHT22;34586;53.616;10.032;2023-01-24T02:57:59;3.80;99.90
10873;DHT22;34586;53.616;10.032;2023-01-24T03:00:38;3.80;99.90
10873;DHT22;34586;53.616;10.032;2023-01-24T03:03:05;3.80;99.90
10873;DHT22;34586;53.616;10.032;2023-01-24T03:05:32;3.80;99.90
10873;DHT22;34586;53.616;10.032;2023-01-24T03:08:17;3.80;99.90
10873;DHT22;34586;53.616;10.032;2023-01-24T03:10:44;3.80;99.90
10873;DHT22;34586;53.616;10.032;2023-01-24T03:13:13;3.70;99.90
10873;DHT22;34586;53.616;10.032;2023-01-24T03:16:01;3.70;99.90
10873;DHT22;34586;53.616;10.032;2023-01-24T03:18:46;3.80;99.90
10873;DHT22;34586;53.616;10.032;2023-01-24T03:21:30;3.80;99.90
10873;DHT22;34586;53.616;10.032;2023-01-24T03:24:16;4.00;99.90
10873;DHT22;34586;53.616;10.032;2023-01-24T03:27:00;3.70;99.90
10873;DHT22;34586;53.616;10.032;2023-01-24T03:29:44;3.70;99.90
10873;DHT22;34586;53.616;10.032;2023-01-24T03:32:29;3.80;99.90
10873;DHT22;34586;53.616;10.032;2023-01-24T03:35:14;3.80;99.90
10873;DHT22;34586;53.616;10.032;2023-01-24T03:37:40;3.80;99.90
10873;DHT22;34586;53.616;10.032;2023-01-24T03:40:24;3.80;99.90
10873;DHT22;34586;53.616;10.032;2023-01-24T03:42:51;3.80;99.90
10873;DHT22;34586;53.616;10.032;2023-01-24T03:45:18;3.70;99.90
10873;DHT22;34586;53.616;10.032;2023-01-24T03:48:07;3.70;99.90
10873;DHT22;34586;53.616;10.032;2023-01-24T03:50:37;3.80;99.90
10873;DHT22;34586;53.616;10.032;2023-01-24T03:53:26;3.80;99.90
10873;DHT22;34586;53.616;10.032;2023-01-24T03:55:59;3.80;99.90
10873;DHT22;34586;53.616;10.032;2023-01-24T03:58:28;3.70;99.90
10873;DHT22;34586;53.616;10.032;2023-01-24T04:00:55;3.70;99.90
10873;DHT22;34586;53.616;10.032;2023-01-24T04:03:21;4.00;99.90
10873;DHT22;34586;53.616;10.032;2023-01-24T04:05:47;3.80;99.90
10873;DHT22;34586;53.616;10.032;2023-01-24T04:08:13;3.80;99.90
10873;DHT22;34586;53.616;10.032;2023-01-24T04:10:40;3.80;99.90
10873;DHT22;34586;53.616;10.032;2023-01-24T04:13:05;3.90;99.90
10873;DHT22;34586;53.616;10.032;2023-01-24T04:15:32;4.50;99.90
10873;DHT22;34586;53.616;10.032;2023-01-24T04:18:00;3.80;99.90
10873;DHT22;34586;53.616;10.032;2023-01-24T04:20:28;3.80;99.90
10873;DHT22;34586;53.616;10.032;2023-01-24T04:22:54;3.80;99.90
10873;DHT22;34586;53.616;10.032;2023-01-24T04:25:20;3.80;99.90
10873;DHT22;34586;53.616;10.032;2023-01-24T04:27:46;3.80;99.90
10873;DHT22;34586;53.616;10.032;2023-01-24T04:30:14;3.80;99.90
10873;DHT22;34586;53.616;10.032;2023-01-24T04:32:41;3.80;99.90
10873;DHT22;34586;53.616;10.032;2023-01-24T04:35:07;3.70;97.10
10873;DHT22;34586;53.616;10.032;2023-01-24T04:37:33;3.70;99.90
10873;DHT22;34586;53.616;10.032;2023-01-24T04:39:59;3.70;99.90
10873;DHT22;34586;53.616;10.032;2023-01-24T04:42:27;3.70;99.90
10873;DHT22;34586;53.616;10.032;2023-01-24T04:44:53;3.70;99.90
10873;DHT22;34586;53.616;10.032;2023-01-24T04:47:19;3.70;99.90
10873;DHT22;34586;53.616;10.032;2023-01-24T04:49:45;3.80;99.90
10873;DHT22;34586;53.616;10.032;2023-01-24T04:52:12;4.20;99.90
10873;DHT22;34586;53.616;10.032;2023-01-24T04:54:41;3.80;99.20
10873;DHT22;34586;53.616;10.032;2023-01-24T04:57:07;3.80;97.50
10873;DHT22;34586;53.616;10.032;2023-01-24T04:59:33;3.80;99.40
10873;DHT22;34586;53.616;10.032;2023-01-24T05:01:58;3.90;52.20
10873;DHT22;34586;53.616;10.032;2023-01-24T05:04:25;3.80;1.00
10873;DHT22;34586;53.616;10.032;2023-01-24T05:06:51;3.80;1.00
10873;DHT22;34586;53.616;10.032;2023-01-24T05:09:16;3.80;1.00
10873;DHT22;34586;53.616;10.032;2023-01-24T05:11:42;3.90;1.00
10873;DHT22;34586;53.616;10.032;2023-01-24T05:14:09;3.80;1.00
10873;DHT22;34586;53.616;10.032;2023-01-24T05:16:35;3.80;1.00
10873;DHT22;34586;53.616;10.032;2023-01-24T05:19:04;3.80;1.00
10873;DHT22;34586;53.616;10.032;2023-01-24T05:21:30;3.80;1.00
10873;DHT22;34586;53.616;10.032;2023-01-24T05:23:56;3.80;1.00
10873;DHT22;34586;53.616;10.032;2023-01-24T05:26:25;3.80;10.90
10873;DHT22;34586;53.616;10.032;2023-01-24T05:28:52;4.10;13.00
10873;DHT22;34586;53.616;10.032;2023-01-24T05:31:19;3.80;1.00
10873;DHT22;34586;53.616;10.032;2023-01-24T05:33:45;3.80;1.00
10873;DHT22;34586;53.616;10.032;2023-01-24T05:36:16;3.70;1.00
10873;DHT22;34586;53.616;10.032;2023-01-24T05:38:42;3.80;1.00
10873;DHT22;34586;53.616;10.032;2023-01-24T05:41:10;3.80;1.00
10873;DHT22;34586;53.616;10.032;2023-01-24T05:43:36;3.80;1.00
10873;DHT22;34586;53.616;10.032;2023-01-24T05:46:06;3.70;1.00
10873;DHT22;34586;53.616;10.032;2023-01-24T05:48:33;3.80;1.00
10873;DHT22;34586;53.616;10.032;2023-01-24T05:51:01;3.90;1.00
10873;DHT22;34586;53.616;10.032;2023-01-24T05:53:28;3.80;1.00
10873;DHT22;34586;53.616;10.032;2023-01-24T05:56:00;3.70;99.90
10873;DHT22;34586;53.616;10.032;2023-01-24T05:58:26;3.80;1.00
10873;DHT22;34586;53.616;10.032;2023-01-24T06:00:52;3.80;99.90
10873;DHT22;34586;53.616;10.032;2023-01-24T06:03:18;3.80;99.90
10873;DHT22;34586;53.616;10.032;2023-01-24T06:05:48;3.80;99.90
10873;DHT22;34586;53.616;10.032;2023-01-24T06:08:15;3.80;99.90
10873;DHT22;34586;53.616;10.032;2023-01-24T06:10:42;3.90;99.90
10873;DHT22;34586;53.616;10.032;2023-01-24T06:13:08;3.80;1.00
10873;DHT22;34586;53.616;10.032;2023-01-24T06:15:34;3.70;1.00
10873;DHT22;34586;53.616;10.032;2023-01-24T06:18:00;3.90;1.00
10873;DHT22;34586;53.616;10.032;2023-01-24T06:20:26;4.40;1.00
10873;DHT22;34586;53.616;10.032;2023-01-24T06:22:54;3.80;99.90
10873;DHT22;34586;53.616;10.032;2023-01-24T06:25:25;3.80;99.90
10873;DHT22;34586;53.616;10.032;2023-01-24T06:27:54;3.80;99.90
10873;DHT22;34586;53.616;10.032;2023-01-24T06:30:20;3.80;99.90
10873;DHT22;34586;53.616;10.032;2023-01-24T06:33:11;3.80;1.00
10873;DHT22;34586;53.616;10.032;2023-01-24T06:38:38;3.80;1.00
10873;DHT22;34586;53.616;10.032;2023-01-24T06:41:15;3.80;99.90
10873;DHT22;34586;53.616;10.032;2023-01-24T06:43:42;3.70;99.90
10873;DHT22;34586;53.616;10.032;2023-01-24T06:46:09;3.60;99.90
10873;DHT22;34586;53.616;10.032;2023-01-24T06:48:35;3.60;1.00
10873;DHT22;34586;53.616;10.032;2023-01-24T06:51:01;3.60;99.90
10873;DHT22;34586;53.616;10.032;2023-01-24T06:53:26;3.70;99.90
10873;DHT22;34586;53.616;10.032;2023-01-24T06:55:53;3.70;99.90
10873;DHT22;34586;53.616;10.032;2023-01-24T06:58:22;3.70;1.00
10873;DHT22;34586;53.616;10.032;2023-01-24T07:00:52;3.70;99.90
10873;DHT22;34586;53.616;10.032;2023-01-24T07:03:19;3.70;99.90
10873;DHT22;34586;53.616;10.032;2023-01-24T07:05:45;3.80;1.00
10873;DHT22;34586;53.616;10.032;2023-01-24T07:08:12;3.80;99.90
10873;DHT22;34586;53.616;10.032;2023-01-24T07:10:38;3.80;1.00
10873;DHT22;34586;53.616;10.032;2023-01-24T07:13:06;3.80;99.90
10873;DHT22;34586;53.616;10.032;2023-01-24T07:15:32;3.80;1.00
10873;DHT22;34586;53.616;10.032;2023-01-24T07:18:10;3.70;1.00
10873;DHT22;34586;53.616;10.032;2023-01-24T07:20:37;3.80;1.00
10873;DHT22;34586;53.616;10.032;2023-01-24T07:23:03;3.70;1.60
10873;DHT22;34586;53.616;10.032;2023-01-24T07:25:29;3.60;99.90
10873;DHT22;34586;53.616;10.032;2023-01-24T07:27:56;3.70;1.00
10873;DHT22;34586;53.616;10.032;2023-01-24T07:30:22;3.70;99.90
10873;DHT22;34586;53.616;10.032;2023-01-24T07:32:48;3.70;99.90
10873;DHT22;34586;53.616;10.032;2023-01-24T07:35:13;3.80;99.90
10873;DHT22;34586;53.616;10.032;2023-01-24T07:37:39;3.80;99.90
10873;DHT22;34586;53.616;10.032;2023-01-24T07:40:05;3.90;1.00
10873;DHT22;34586;53.616;10.032;2023-01-24T07:42:32;3.80;71.50
10873;DHT22;34586;53.616;10.032;2023-01-24T07:44:59;4.10;99.90
10873;DHT22;34586;53.616;10.032;2023-01-24T07:47:26;4.00;99.90
10873;DHT22;34586;53.616;10.032;2023-01-24T07:49:54;3.80;92.40
10873;DHT22;34586;53.616;10.032;2023-01-24T07:52:19;3.80;1.00
10873;DHT22;34586;53.616;10.032;2023-01-24T07:54:47;3.80;1.00
10873;DHT22;34586;53.616;10.032;2023-01-24T07:57:13;3.80;57.20
10873;DHT22;34586;53.616;10.032;2023-01-24T07:59:42;4.40;99.90
10873;DHT22;34586;53.616;10.032;2023-01-24T08:02:11;3.80;99.90
10873;DHT22;34586;53.616;10.032;2023-01-24T08:04:37;3.80;43.40
10873;DHT22;34586;53.616;10.032;2023-01-24T08:07:03;3.80;1.00
10873;DHT22;34586;53.616;10.032;2023-01-24T08:09:48;3.80;1.00
10873;DHT22;34586;53.616;10.032;2023-01-24T08:12:14;3.80;1.00
10873;DHT22;34586;53.616;10.032;2023-01-24T08:14:40;3.70;1.00
10873;DHT22;34586;53.616;10.032;2023-01-24T08:17:06;3.70;12.50
10873;DHT22;34586;53.616;10.032;2023-01-24T08:19:32;3.70;1.00
10873;DHT22;34586;53.616;10.032;2023-01-24T08:21:58;3.70;1.00
10873;DHT22;34586;53.616;10.032;2023-01-24T08:24:25;3.70;1.00
10873;DHT22;34586;53.616;10.032;2023-01-24T08:26:50;3.70;1.00
10873;DHT22;34586;53.616;10.032;2023-01-24T08:29:17;3.80;1.00
10873;DHT22;34586;53.616;10.032;2023-01-24T08:31:44;3.80;1.00
10873;DHT22;34586;53.616;10.032;2023-01-24T08:34:10;4.10;70.60
10873;DHT22;34586;53.616;10.032;2023-01-24T08:36:36;3.80;99.90
10873;DHT22;34586;53.616;10.032;2023-01-24T08:39:02;3.80;99.90
10873;DHT22;34586;53.616;10.032;2023-01-24T08:41:29;3.80;99.90
10873;DHT22;34586;53.616;10.032;2023-01-24T08:43:56;4.00;99.90
10873;DHT22;34586;53.616;10.032;2023-01-24T08:46:22;3.80;1.00
10873;DHT22;34586;53.616;10.032;2023-01-24T08:48:48;3.70;10.40
10873;DHT22;34586;53.616;10.032;2023-01-24T08:51:13;3.80;99.90
10873;DHT22;34586;53.616;10.032;2023-01-24T08:53:39;3.90;99.90
10873;DHT22;34586;53.616;10.032;2023-01-24T08:56:05;3.90;99.90
10873;DHT22;34586;53.616;10.032;2023-01-24T08:58:32;3.90;1.00
10873;DHT22;34586;53.616;10.032;2023-01-24T09:00:59;3.90;1.00
10873;DHT22;34586;53.616;10.032;2023-01-24T09:03:25;3.90;99.90
10873;DHT22;34586;53.616;10.032;2023-01-24T09:05:58;3.90;99.90
10873;DHT22;34586;53.616;10.032;2023-01-24T09:08:24;3.90;9.60
10873;DHT22;34586;53.616;10.032;2023-01-24T09:10:49;3.90;1.00
10873;DHT22;34586;53.616;10.032;2023-01-24T09:13:15;3.90;99.90
10873;DHT22;34586;53.616;10.032;2023-01-24T09:15:41;3.80;3.40
10873;DHT22;34586;53.616;10.032;2023-01-24T09:18:06;3.90;1.00
10873;DHT22;34586;53.616;10.032;2023-01-24T09:20:32;3.90;99.90
10873;DHT22;34586;53.616;10.032;2023-01-24T09:22:58;3.90;1.00
10873;DHT22;34586;53.616;10.032;2023-01-24T09:25:24;3.90;1.00
10873;DHT22;34586;53.616;10.032;2023-01-24T09:27:53;3.90;1.00
10873;DHT22;34586;53.616;10.032;2023-01-24T09:30:19;3.80;99.90
10873;DHT22;34586;53.616;10.032;2023-01-24T09:32:47;3.90;1.00
10873;DHT22;34586;53.616;10.032;2023-01-24T09:35:14;3.80;1.00
10873;DHT22;34586;53.616;10.032;2023-01-24T09:37:40;3.80;55.30
10873;DHT22;34586;53.616;10.032;2023-01-24T09:40:21;3.90;14.40
10873;DHT22;34586;53.616;10.032;2023-01-24T09:42:57;4.00;99.90
10873;DHT22;34586;53.616;10.032;2023-01-24T09:45:32;4.00;99.90
10873;DHT22;34586;53.616;10.032;2023-01-24T09:48:01;4.00;1.00
10873;DHT22;34586;53.616;10.032;2023-01-24T09:50:42;4.10;1.00
10873;DHT22;34586;53.616;10.032;2023-01-24T09:53:23;4.10;99.90
10873;DHT22;34586;53.616;10.032;2023-01-24T09:55:50;4.10;99.90
10873;DHT22;34586;53.616;10.032;2023-01-24T09:58:36;4.10;1.00
10873;DHT22;34586;53.616;10.032;2023-01-24T10:01:10;4.20;1.00
10873;DHT22;34586;53.616;10.032;2023-01-24T10:03:37;4.10;1.00
10873;DHT22;34586;53.616;10.032;2023-01-24T10:06:13;4.10;1.00
10873;DHT22;34586;53.616;10.032;2023-01-24T10:08:50;4.20;1.00
10873;DHT22;34586;53.616;10.032;2023-01-24T10:11:23;4.20;1.00
10873;DHT22;34586;53.616;10.032;2023-01-24T10:14:22;4.20;1.00
10873;DHT22;34586;53.616;10.032;2023-01-24T10:23:05;4.20;99.90
10873;DHT22;34586;53.616;10.032;2023-01-24T10:25:51;4.30;99.90
10873;DHT22;34586;53.616;10.032;2023-01-24T10:28:37;4.20;99.90
10873;DHT22;34586;53.616;10.032;2023-01-24T10:31:11;4.20;99.90
10873;DHT22;34586;53.616;10.032;2023-01-24T10:33:44;4.30;99.90
10873;DHT22;34586;53.616;10.032;2023-01-24T10:36:35;4.30;1.00
10873;DHT22;34586;53.616;10.032;2023-01-24T10:39:04;4.40;99.90
10873;DHT22;34586;53.616;10.032;2023-01-24T10:41:33;4.30;99.90
10873;DHT22;34586;53.616;10.032;2023-01-24T10:44:03;4.30;99.90
10873;DHT22;34586;53.616;10.032;2023-01-24T10:46:55;4.40;99.90
10873;DHT22;34586;53.616;10.032;2023-01-24T10:49:32;4.40;62.70
10873;DHT22;34586;53.616;10.032;2023-01-24T10:52:20;4.50;1.00
10873;DHT22;34586;53.616;10.032;2023-01-24T10:54:50;4.50;99.90
10873;DHT22;34586;53.616;10.032;2023-01-24T10:57:35;4.50;1.00
10873;DHT22;34586;53.616;10.032;2023-01-24T11:00:32;4.50;1.00
10873;DHT22;34586;53.616;10.032;2023-01-24T11:03:04;4.40;99.90
10873;DHT22;34586;53.616;10.032;2023-01-24T11:05:52;4.50;99.90
10873;DHT22;34586;53.616;10.032;2023-01-24T11:08:34;4.40;1.00
10873;DHT22;34586;53.616;10.032;2023-01-24T11:11:01;4.30;99.90
10873;DHT22;34586;53.616;10.032;2023-01-24T11:13:39;4.40;1.00
10873;DHT22;34586;53.616;10.032;2023-01-24T11:18:55;4.40;1.00
10873;DHT22;34586;53.616;10.032;2023-01-24T11:21:22;4.40;1.00
10873;DHT22;34586;53.616;10.032;2023-01-24T11:24:13;4.30;99.90
10873;DHT22;34586;53.616;10.032;2023-01-24T11:29:27;4.10;1.00
10873;DHT22;34586;53.616;10.032;2023-01-24T11:35:12;4.20;99.90
10873;DHT22;34586;53.616;10.032;2023-01-24T11:48:53;4.30;1.00
10873;DHT22;34586;53.616;10.032;2023-01-24T11:59:51;4.50;1.00
10873;DHT22;34586;53.616;10.032;2023-01-24T12:05:27;4.40;1.00
10873;DHT22;34586;53.616;10.032;2023-01-24T12:14:35;4.30;1.00
10873;DHT22;34586;53.616;10.032;2023-01-24T12:16:58;4.30;99.90
10873;DHT22;34586;53.616;10.032;2023-01-24T12:22:25;4.30;6.10
10873;DHT22;34586;53.616;10.032;2023-01-24T12:27:32;4.20;1.00
10873;DHT22;34586;53.616;10.032;2023-01-24T12:30:03;4.30;99.90
10873;DHT22;34586;53.616;10.032;2023-01-24T12:32:46;4.30;78.80
10873;DHT22;34586;53.616;10.032;2023-01-24T12:35:30;4.30;1.00
10873;DHT22;34586;53.616;10.032;2023-01-24T12:40:52;4.30;99.90
10873;DHT22;34586;53.616;10.032;2023-01-24T12:43:34;4.30;79.90
10873;DHT22;34586;53.616;10.032;2023-01-24T12:46:19;4.30;1.00
10873;DHT22;34586;53.616;10.032;2023-01-24T12:49:00;4.20;95.40
10873;DHT22;34586;53.616;10.032;2023-01-24T12:51:47;4.10;1.00
10873;DHT22;34586;53.616;10.032;2023-01-24T12:54:18;4.10;99.90
10873;DHT22;34586;53.616;10.032;2023-01-24T12:57:25;4.00;1.00
10873;DHT22;34586;53.616;10.032;2023-01-24T12:59:50;4.20;26.40
10873;DHT22;34586;53.616;10.032;2023-01-24T13:05:15;4.00;99.90
10873;DHT22;34586;53.616;10.032;2023-01-24T13:12:57;4.20;1.00
10873;DHT22;34586;53.616;10.032;2023-01-24T13:15:49;4.30;1.00
10873;DHT22;34586;53.616;10.032;2023-01-24T13:21:08;4.30;1.00
10873;DHT22;34586;53.616;10.032;2023-01-24T13:32:24;4.30;99.90
10873;DHT22;34586;53.616;10.032;2023-01-24T13:34:53;4.30;99.90
10873;DHT22;34586;53.616;10.032;2023-01-24T13:37:33;4.30;1.00
10873;DHT22;34586;53.616;10.032;2023-01-24T13:40:18;4.30;99.90
10873;DHT22;34586;53.616;10.032;2023-01-24T13:42:46;4.20;1.00
10873;DHT22;34586;53.616;10.032;2023-01-24T13:47:56;4.30;1.00
10873;DHT22;34586;53.616;10.032;2023-01-24T13:50:29;4.10;20.50
10873;DHT22;34586;53.616;10.032;2023-01-24T13:53:01;4.10;1.00
10873;DHT22;34586;53.616;10.032;2023-01-24T14:03:17;4.10;92.30
10873;DHT22;34586;53.616;10.032;2023-01-24T14:06:06;4.20;1.00
10873;DHT22;34586;53.616;10.032;2023-01-24T14:08:39;4.00;99.90
10873;DHT22;34586;53.616;10.032;2023-01-24T14:19:10;4.10;81.30
10873;DHT22;34586;53.616;10.032;2023-01-24T14:24:37;4.10;1.00
10873;DHT22;34586;53.616;10.032;2023-01-24T14:29:48;4.20;99.90
10873;DHT22;34586;53.616;10.032;2023-01-24T14:32:35;4.30;24.00
10873;DHT22;34586;53.616;10.032;2023-01-24T14:37:43;3.90;1.00
10873;DHT22;34586;53.616;10.032;2023-01-24T14:40:23;3.90;1.00
10873;DHT22;34586;53.616;10.032;2023-01-24T14:42:56;3.90;1.00
10873;DHT22;34586;53.616;10.032;2023-01-24T14:45:26;3.90;1.00
10873;DHT22;34586;53.616;10.032;2023-01-24T14:47:54;3.90;1.00
10873;DHT22;34586;53.616;10.032;2023-01-24T14:50:24;3.90;99.90
10873;DHT22;34586;53.616;10.032;2023-01-24T14:52:51;3.90;1.00
10873;DHT22;34586;53.616;10.032;2023-01-24T14:57:42;3.80;99.90
10873;DHT22;34586;53.616;10.032;2023-01-24T15:00:16;3.70;99.90
10873;DHT22;34586;53.616;10.032;2023-01-24T15:05:34;3.80;1.00
10873;DHT22;34586;53.616;10.032;2023-01-24T15:08:13;3.70;1.00
10873;DHT22;34586;53.616;10.032;2023-01-24T15:10:41;3.70;1.00
10873;DHT22;34586;53.616;10.032;2023-01-24T15:13:19;3.60;99.90
10873;DHT22;34586;53.616;10.032;2023-01-24T15:15:47;3.70;1.00
10873;DHT22;34586;53.616;10.032;2023-01-24T15:18:40;3.50;1.00
10873;DHT22;34586;53.616;10.032;2023-01-24T15:21:16;3.60;17.60
10873;DHT22;34586;53.616;10.032;2023-01-24T15:23:50;3.60;1.00
10873;DHT22;34586;53.616;10.032;2023-01-24T15:26:39;3.60;99.90
10873;DHT22;34586;53.616;10.032;2023-01-24T15:29:42;3.60;99.90
10873;DHT22;34586;53.616;10.032;2023-01-24T15:32:20;3.50;32.90
10873;DHT22;34586;53.616;10.032;2023-01-24T15:34:46;3.60;11.70
10873;DHT22;34586;53.616;10.032;2023-01-24T15:37:13;3.50;99.90
10873;DHT22;34586;53.616;10.032;2023-01-24T15:39:39;3.50;1.00
10873;DHT22;34586;53.616;10.032;2023-01-24T15:42:15;3.50;1.00
10873;DHT22;34586;53.616;10.032;2023-01-24T15:45:02;3.60;99.90
10873;DHT22;34586;53.616;10.032;2023-01-24T15:47:28;3.50;1.00
10873;DHT22;34586;53.616;10.032;2023-01-24T15:50:23;3.70;1.00
10873;DHT22;34586;53.616;10.032;2023-01-24T15:53:12;3.60;99.90
10873;DHT22;34586;53.616;10.032;2023-01-24T15:55:38;3.60;70.20
10873;DHT22;34586;53.616;10.032;2023-01-24T15:58:09;3.60;1.00
10873;DHT22;34586;53.616;10.032;2023-01-24T16:00:35;3.50;1.00
10873;DHT22;34586;53.616;10.032;2023-01-24T16:03:01;3.60;41.70
10873;DHT22;34586;53.616;10.032;2023-01-24T16:05:28;3.60;1.00
10873;DHT22;34586;53.616;10.032;2023-01-24T16:07:56;3.60;1.00
10873;DHT22;34586;53.616;10.032;2023-01-24T16:10:22;3.50;1.00
10873;DHT22;34586;53.616;10.032;2023-01-24T16:12:49;3.50;99.90
10873;DHT22;34586;53.616;10.032;2023-01-24T16:15:20;4.00;99.90
10873;DHT22;34586;53.616;10.032;2023-01-24T16:17:48;3.50;1.00
10873;DHT22;34586;53.616;10.032;2023-01-24T16:20:24;3.50;99.90
10873;DHT22;34586;53.616;10.032;2023-01-24T16:22:54;3.50;1.00
10873;DHT22;34586;53.616;10.032;2023-01-24T16:25:21;3.40;1.00
10873;DHT22;34586;53.616;10.032;2023-01-24T16:27:48;3.40;99.90
10873;DHT22;34586;53.616;10.032;2023-01-24T16:30:20;3.30;1.00
10873;DHT22;34586;53.616;10.032;2023-01-24T16:32:46;2.60;1.00
10873;DHT22;34586;53.616;10.032;2023-01-24T16:35:13;3.30;99.90
10873;DHT22;34586;53.616;10.032;2023-01-24T16:37:39;3.20;99.90
10873;DHT22;34586;53.616;10.032;2023-01-24T16:40:05;3.30;99.90
10873;DHT22;34586;53.616;10.032;2023-01-24T16:42:31;3.30;81.80
10873;DHT22;34586;53.616;10.032;2023-01-24T16:44:58;3.30;99.90
10873;DHT22;34586;53.616;10.032;2023-01-24T16:47:24;3.40;99.90
10873;DHT22;34586;53.616;10.032;2023-01-24T16:49:54;3.40;99.90
10873;DHT22;34586;53.616;10.032;2023-01-24T16:52:21;3.50;99.90
10873;DHT22;34586;53.616;10.032;2023-01-24T16:54:47;3.50;99.90
10873;DHT22;34586;53.616;10.032;2023-01-24T16:57:13;3.50;99.90
10873;DHT22;34586;53.616;10.032;2023-01-24T16:59:38;3.40;99.90
10873;DHT22;34586;53.616;10.032;2023-01-24T17:02:04;3.40;99.90
10873;DHT22;34586;53.616;10.032;2023-01-24T17:04:30;3.40;90.20
10873;DHT22;34586;53.616;10.032;2023-01-24T17:06:56;3.40;6.20
10873;DHT22;34586;53.616;10.032;2023-01-24T17:09:29;3.30;63.30
10873;DHT22;34586;53.616;10.032;2023-01-24T17:11:55;3.30;99.90
10873;DHT22;34586;53.616;10.032;2023-01-24T17:14:25;3.20;99.90
10873;DHT22;34586;53.616;10.032;2023-01-24T17:16:53;3.20;99.90
10873;DHT22;34586;53.616;10.032;2023-01-24T17:19:19;3.10;99.90
10873;DHT22;34586;53.616;10.032;2023-01-24T17:21:46;3.30;1.00
10873;DHT22;34586;53.616;10.032;2023-01-24T17:24:13;3.20;99.90
10873;DHT22;34586;53.616;10.032;2023-01-24T17:26:38;3.30;1.00
10873;DHT22;34586;53.616;10.032;2023-01-24T17:29:05;3.10;99.90
10873;DHT22;34586;53.616;10.032;2023-01-24T17:31:31;3.10;99.90
10873;DHT22;34586;53.616;10.032;2023-01-24T17:33:59;3.10;99.90
10873;DHT22;34586;53.616;10.032;2023-01-24T17:36:25;3.10;1.00
10873;DHT22;34586;53.616;10.032;2023-01-24T17:38:53;3.00;99.90
10873;DHT22;34586;53.616;10.032;2023-01-24T17:41:20;2.90;99.90
10873;DHT22;34586;53.616;10.032;2023-01-24T17:43:48;3.00;1.00
10873;DHT22;34586;53.616;10.032;2023-01-24T17:46:15;2.90;99.90
10873;DHT22;34586;53.616;10.032;2023-01-24T17:48:40;2.90;99.90